Rankin, Michigan
Current Conditions -  °F | °C
As of 6:53 AM on Saturday 01 Nov 2014 (Local Time) from KFNT Reporting Station
Overcast Overcast  
Wind Chill: 24°   Ceiling: 3100
Heat Index: 33°   Visibility: 10mi
Dew Point: 27°   Wind: 13mph
Humidity: 78%   Direction: 360°N
Pressure: 30.29"   Gusts: NA
Location:  42.9382°N, 83.8244°W
Report Text: KFNT 011053Z 36011KT 10SM FEW025 OVC031 01/M03 A3029 RMK AO2 SLP266 T00061028
Loading
Personal Weather Stations






























Interactive Weather Map
Tropical Storm Tracking
New forecast layout! Learn more

10-Day Weather Forecast

Advertisements
Track Severe Weather on mobile